sensor_id;sensor_type;location;lat;lon;timestamp;temperature;humidity
1137;DHT22;557;48.466;7.950;2023-06-26T00:01:53;21.50;99.90
1137;DHT22;557;48.466;7.950;2023-06-26T00:04:42;21.50;99.90
1137;DHT22;557;48.466;7.950;2023-06-26T00:07:30;21.40;99.90
1137;DHT22;557;48.466;7.950;2023-06-26T00:10:19;21.40;99.90
1137;DHT22;557;48.466;7.950;2023-06-26T00:13:07;21.30;99.90
1137;DHT22;557;48.466;7.950;2023-06-26T00:15:54;21.30;99.90
1137;DHT22;557;48.466;7.950;2023-06-26T00:18:41;21.20;99.90
1137;DHT22;557;48.466;7.950;2023-06-26T00:21:30;21.10;99.90
1137;DHT22;557;48.466;7.950;2023-06-26T00:24:17;21.00;99.90
1137;DHT22;557;48.466;7.950;2023-06-26T00:27:05;20.90;99.90
1137;DHT22;557;48.466;7.950;2023-06-26T00:29:53;20.90;99.90
1137;DHT22;557;48.466;7.950;2023-06-26T00:32:40;20.90;99.90
1137;DHT22;557;48.466;7.950;2023-06-26T00:35:27;20.90;99.90
1137;DHT22;557;48.466;7.950;2023-06-26T00:38:16;20.90;99.90
1137;DHT22;557;48.466;7.950;2023-06-26T00:41:03;20.90;99.90
1137;DHT22;557;48.466;7.950;2023-06-26T00:43:51;20.90;99.90
1137;DHT22;557;48.466;7.950;2023-06-26T00:46:38;20.80;99.90
1137;DHT22;557;48.466;7.950;2023-06-26T00:49:26;20.70;99.90
1137;DHT22;557;48.466;7.950;2023-06-26T00:52:14;20.70;99.90
1137;DHT22;557;48.466;7.950;2023-06-26T00:55:04;20.60;99.90
1137;DHT22;557;48.466;7.950;2023-06-26T00:57:52;20.60;99.90
1137;DHT22;557;48.466;7.950;2023-06-26T01:00:41;20.60;99.90
1137;DHT22;557;48.466;7.950;2023-06-26T01:03:31;20.60;99.90
1137;DHT22;557;48.466;7.950;2023-06-26T01:06:20;20.60;99.90
1137;DHT22;557;48.466;7.950;2023-06-26T01:09:08;20.60;99.90
1137;DHT22;557;48.466;7.950;2023-06-26T01:11:57;20.70;99.90
1137;DHT22;557;48.466;7.950;2023-06-26T01:14:44;20.60;99.90
1137;DHT22;557;48.466;7.950;2023-06-26T01:17:32;20.70;99.90
1137;DHT22;557;48.466;7.950;2023-06-26T01:20:20;20.60;99.90
1137;DHT22;557;48.466;7.950;2023-06-26T01:23:12;20.40;99.90
1137;DHT22;557;48.466;7.950;2023-06-26T01:26:15;20.20;1.00
1137;DHT22;557;48.466;7.950;2023-06-26T01:29:06;20.00;1.00
1137;DHT22;557;48.466;7.950;2023-06-26T01:31:54;19.90;1.00
1137;DHT22;557;48.466;7.950;2023-06-26T01:34:42;19.80;1.00
1137;DHT22;557;48.466;7.950;2023-06-26T01:37:30;19.80;99.90
1137;DHT22;557;48.466;7.950;2023-06-26T01:40:17;20.00;99.90
1137;DHT22;557;48.466;7.950;2023-06-26T01:43:10;20.20;99.90
1137;DHT22;557;48.466;7.950;2023-06-26T01:46:05;20.40;99.90
1137;DHT22;557;48.466;7.950;2023-06-26T01:48:57;20.40;99.90
1137;DHT22;557;48.466;7.950;2023-06-26T01:51:51;20.30;99.90
1137;DHT22;557;48.466;7.950;2023-06-26T01:54:55;20.30;99.90
1137;DHT22;557;48.466;7.950;2023-06-26T01:57:45;20.20;99.90
1137;DHT22;557;48.466;7.950;2023-06-26T02:00:34;20.10;99.90
1137;DHT22;557;48.466;7.950;2023-06-26T02:03:23;20.00;99.90
1137;DHT22;557;48.466;7.950;2023-06-26T02:06:10;19.90;99.90
1137;DHT22;557;48.466;7.950;2023-06-26T02:08:57;19.80;99.90
1137;DHT22;557;48.466;7.950;2023-06-26T02:11:45;19.80;1.00
1137;DHT22;557;48.466;7.950;2023-06-26T02:14:32;19.70;1.00
1137;DHT22;557;48.466;7.950;2023-06-26T02:17:21;19.70;1.00
1137;DHT22;557;48.466;7.950;2023-06-26T02:20:08;19.70;1.00
1137;DHT22;557;48.466;7.950;2023-06-26T02:22:56;19.70;1.00
1137;DHT22;557;48.466;7.950;2023-06-26T02:25:43;19.70;1.00
1137;DHT22;557;48.466;7.950;2023-06-26T02:28:31;19.60;1.00
1137;DHT22;557;48.466;7.950;2023-06-26T02:31:20;19.60;1.00
1137;DHT22;557;48.466;7.950;2023-06-26T02:34:09;19.70;1.00
1137;DHT22;557;48.466;7.950;2023-06-26T02:36:57;19.70;1.00
1137;DHT22;557;48.466;7.950;2023-06-26T02:39:44;19.70;1.00
1137;DHT22;557;48.466;7.950;2023-06-26T02:42:32;19.70;1.00
1137;DHT22;557;48.466;7.950;2023-06-26T02:45:19;19.70;1.00
1137;DHT22;557;48.466;7.950;2023-06-26T02:48:07;19.70;1.00
1137;DHT22;557;48.466;7.950;2023-06-26T02:50:56;19.70;1.00
1137;DHT22;557;48.466;7.950;2023-06-26T02:53:43;19.70;1.00
1137;DHT22;557;48.466;7.950;2023-06-26T02:56:30;19.60;1.00
1137;DHT22;557;48.466;7.950;2023-06-26T02:59:17;19.60;1.00
1137;DHT22;557;48.466;7.950;2023-06-26T03:02:05;19.70;1.00
1137;DHT22;557;48.466;7.950;2023-06-26T03:04:52;19.70;1.00
1137;DHT22;557;48.466;7.950;2023-06-26T03:07:41;19.70;1.00
1137;DHT22;557;48.466;7.950;2023-06-26T03:10:28;19.70;1.00
1137;DHT22;557;48.466;7.950;2023-06-26T03:13:15;19.70;1.00
1137;DHT22;557;48.466;7.950;2023-06-26T03:16:03;19.70;1.00
1137;DHT22;557;48.466;7.950;2023-06-26T03:18:51;19.70;1.00
1137;DHT22;557;48.466;7.950;2023-06-26T03:21:38;19.60;1.00
1137;DHT22;557;48.466;7.950;2023-06-26T03:24:27;19.50;1.00
1137;DHT22;557;48.466;7.950;2023-06-26T03:27:14;19.50;1.00
1137;DHT22;557;48.466;7.950;2023-06-26T03:30:01;19.50;1.00
1137;DHT22;557;48.466;7.950;2023-06-26T03:32:49;19.60;1.00
1137;DHT22;557;48.466;7.950;2023-06-26T03:35:36;19.70;1.00
1137;DHT22;557;48.466;7.950;2023-06-26T03:38:24;19.70;1.00
1137;DHT22;557;48.466;7.950;2023-06-26T03:41:13;19.70;1.00
1137;DHT22;557;48.466;7.950;2023-06-26T03:44:00;19.70;1.00
1137;DHT22;557;48.466;7.950;2023-06-26T03:46:49;19.70;1.00
1137;DHT22;557;48.466;7.950;2023-06-26T03:49:36;19.70;1.00
1137;DHT22;557;48.466;7.950;2023-06-26T03:52:23;19.70;1.00
1137;DHT22;557;48.466;7.950;2023-06-26T03:55:11;19.60;1.00
1137;DHT22;557;48.466;7.950;2023-06-26T03:57:59;19.60;1.00
1137;DHT22;557;48.466;7.950;2023-06-26T04:00:47;19.60;1.00
1137;DHT22;557;48.466;7.950;2023-06-26T04:03:34;19.50;1.00
1137;DHT22;557;48.466;7.950;2023-06-26T04:06:22;19.50;1.00
1137;DHT22;557;48.466;7.950;2023-06-26T04:09:09;19.40;99.90
1137;DHT22;557;48.466;7.950;2023-06-26T04:11:56;19.40;99.90
1137;DHT22;557;48.466;7.950;2023-06-26T04:14:45;19.30;99.90
1137;DHT22;557;48.466;7.950;2023-06-26T04:17:32;19.30;99.90
1137;DHT22;557;48.466;7.950;2023-06-26T04:20:19;19.30;99.90
1137;DHT22;557;48.466;7.950;2023-06-26T04:23:07;19.40;99.90
1137;DHT22;557;48.466;7.950;2023-06-26T04:25:54;19.40;99.90
1137;DHT22;557;48.466;7.950;2023-06-26T04:28:42;19.50;99.90
1137;DHT22;557;48.466;7.950;2023-06-26T04:31:31;19.60;1.00
1137;DHT22;557;48.466;7.950;2023-06-26T04:34:18;19.70;1.00
1137;DHT22;557;48.466;7.950;2023-06-26T04:37:06;19.70;1.00
1137;DHT22;557;48.466;7.950;2023-06-26T04:39:55;19.80;1.00
1137;DHT22;557;48.466;7.950;2023-06-26T04:42:42;19.90;1.00
1137;DHT22;557;48.466;7.950;2023-06-26T04:45:29;19.90;1.00
1137;DHT22;557;48.466;7.950;2023-06-26T04:48:18;19.90;1.00
1137;DHT22;557;48.466;7.950;2023-06-26T04:51:05;19.90;1.00
1137;DHT22;557;48.466;7.950;2023-06-26T04:53:53;19.90;1.00
1137;DHT22;557;48.466;7.950;2023-06-26T04:56:40;19.90;1.00
1137;DHT22;557;48.466;7.950;2023-06-26T04:59:27;19.90;1.00
1137;DHT22;557;48.466;7.950;2023-06-26T05:02:15;19.90;1.00
1137;DHT22;557;48.466;7.950;2023-06-26T05:05:03;19.90;74.50
1137;DHT22;557;48.466;7.950;2023-06-26T05:07:53;19.90;2.00
1137;DHT22;557;48.466;7.950;2023-06-26T05:10:41;19.90;99.90
1137;DHT22;557;48.466;7.950;2023-06-26T05:13:28;19.90;42.60
1137;DHT22;557;48.466;7.950;2023-06-26T05:16:15;20.00;99.90
1137;DHT22;557;48.466;7.950;2023-06-26T05:19:03;20.10;1.00
1137;DHT22;557;48.466;7.950;2023-06-26T05:21:52;20.20;1.00
1137;DHT22;557;48.466;7.950;2023-06-26T05:24:39;20.30;1.00
1137;DHT22;557;48.466;7.950;2023-06-26T05:27:27;20.40;1.00
1137;DHT22;557;48.466;7.950;2023-06-26T05:30:15;20.50;1.00
1137;DHT22;557;48.466;7.950;2023-06-26T05:33:03;20.50;1.00
1137;DHT22;557;48.466;7.950;2023-06-26T05:35:52;20.60;1.00
1137;DHT22;557;48.466;7.950;2023-06-26T05:38:41;20.70;1.00
1137;DHT22;557;48.466;7.950;2023-06-26T05:41:31;20.80;1.00
1137;DHT22;557;48.466;7.950;2023-06-26T05:44:18;20.90;1.00
1137;DHT22;557;48.466;7.950;2023-06-26T05:47:05;21.10;1.00
1137;DHT22;557;48.466;7.950;2023-06-26T05:49:53;21.10;99.90
1137;DHT22;557;48.466;7.950;2023-06-26T05:52:41;21.20;99.90
1137;DHT22;557;48.466;7.950;2023-06-26T05:55:31;21.30;99.90
1137;DHT22;557;48.466;7.950;2023-06-26T05:58:20;21.40;99.90
1137;DHT22;557;48.466;7.950;2023-06-26T06:01:08;21.60;99.90
1137;DHT22;557;48.466;7.950;2023-06-26T06:03:56;21.70;99.90
1137;DHT22;557;48.466;7.950;2023-06-26T06:06:43;21.70;99.90
1137;DHT22;557;48.466;7.950;2023-06-26T06:09:30;21.80;99.90
1137;DHT22;557;48.466;7.950;2023-06-26T06:12:19;22.00;99.90
1137;DHT22;557;48.466;7.950;2023-06-26T06:15:07;22.20;99.90
1137;DHT22;557;48.466;7.950;2023-06-26T06:17:54;22.30;99.90
1137;DHT22;557;48.466;7.950;2023-06-26T06:20:41;22.40;99.90
1137;DHT22;557;48.466;7.950;2023-06-26T06:23:29;22.50;99.90
1137;DHT22;557;48.466;7.950;2023-06-26T06:26:16;22.70;99.90
1137;DHT22;557;48.466;7.950;2023-06-26T06:29:05;22.90;99.90
1137;DHT22;557;48.466;7.950;2023-06-26T06:31:52;23.00;99.90
1137;DHT22;557;48.466;7.950;2023-06-26T06:34:40;23.20;99.90
1137;DHT22;557;48.466;7.950;2023-06-26T06:37:27;23.20;99.90
1137;DHT22;557;48.466;7.950;2023-06-26T06:40:17;23.40;99.90
1137;DHT22;557;48.466;7.950;2023-06-26T06:43:04;23.50;99.90
1137;DHT22;557;48.466;7.950;2023-06-26T06:45:54;23.60;99.90
1137;DHT22;557;48.466;7.950;2023-06-26T06:48:42;23.70;99.90
1137;DHT22;557;48.466;7.950;2023-06-26T06:51:29;23.70;99.90
1137;DHT22;557;48.466;7.950;2023-06-26T06:54:17;23.90;99.90
1137;DHT22;557;48.466;7.950;2023-06-26T06:57:04;24.00;99.90
1137;DHT22;557;48.466;7.950;2023-06-26T06:59:52;24.10;99.90
1137;DHT22;557;48.466;7.950;2023-06-26T07:02:42;24.30;99.90
1137;DHT22;557;48.466;7.950;2023-06-26T07:05:30;24.40;94.70
1137;DHT22;557;48.466;7.950;2023-06-26T07:08:17;24.70;82.40
1137;DHT22;557;48.466;7.950;2023-06-26T07:11:05;24.90;73.30
1137;DHT22;557;48.466;7.950;2023-06-26T07:13:52;25.20;52.90
1137;DHT22;557;48.466;7.950;2023-06-26T07:16:39;25.40;42.20
1137;DHT22;557;48.466;7.950;2023-06-26T07:19:28;25.50;32.70
1137;DHT22;557;48.466;7.950;2023-06-26T07:22:15;25.60;30.00
1137;DHT22;557;48.466;7.950;2023-06-26T07:25:05;25.90;30.30
1137;DHT22;557;48.466;7.950;2023-06-26T07:27:56;26.20;24.20
1137;DHT22;557;48.466;7.950;2023-06-26T07:30:44;26.40;17.40
1137;DHT22;557;48.466;7.950;2023-06-26T07:33:33;26.60;16.50
1137;DHT22;557;48.466;7.950;2023-06-26T07:36:22;26.90;12.20
1137;DHT22;557;48.466;7.950;2023-06-26T07:39:09;27.20;8.70
1137;DHT22;557;48.466;7.950;2023-06-26T07:41:57;27.30;4.20
1137;DHT22;557;48.466;7.950;2023-06-26T07:44:45;27.50;3.60
1137;DHT22;557;48.466;7.950;2023-06-26T07:47:32;27.90;1.20
1137;DHT22;557;48.466;7.950;2023-06-26T07:50:20;28.30;1.00
1137;DHT22;557;48.466;7.950;2023-06-26T07:53:10;28.60;1.00
1137;DHT22;557;48.466;7.950;2023-06-26T07:55:57;28.60;1.00
1137;DHT22;557;48.466;7.950;2023-06-26T07:58:45;28.40;1.00
1137;DHT22;557;48.466;7.950;2023-06-26T08:01:32;28.40;1.00
1137;DHT22;557;48.466;7.950;2023-06-26T08:04:20;28.70;1.00
1137;DHT22;557;48.466;7.950;2023-06-26T08:07:08;29.10;1.00
1137;DHT22;557;48.466;7.950;2023-06-26T08:09:56;28.80;1.00
1137;DHT22;557;48.466;7.950;2023-06-26T08:12:44;28.40;1.00
1137;DHT22;557;48.466;7.950;2023-06-26T08:15:32;28.00;1.00
1137;DHT22;557;48.466;7.950;2023-06-26T08:18:20;28.10;1.00
1137;DHT22;557;48.466;7.950;2023-06-26T08:21:07;28.20;1.00
1137;DHT22;557;48.466;7.950;2023-06-26T08:23:56;28.20;1.00
1137;DHT22;557;48.466;7.950;2023-06-26T08:26:46;28.70;1.00
1137;DHT22;557;48.466;7.950;2023-06-26T08:29:33;29.10;1.00
1137;DHT22;557;48.466;7.950;2023-06-26T08:32:21;29.30;1.00
1137;DHT22;557;48.466;7.950;2023-06-26T08:35:08;29.30;1.00
1137;DHT22;557;48.466;7.950;2023-06-26T08:37:57;29.20;1.00
1137;DHT22;557;48.466;7.950;2023-06-26T08:40:44;29.50;1.00
1137;DHT22;557;48.466;7.950;2023-06-26T08:43:33;29.40;1.00
1137;DHT22;557;48.466;7.950;2023-06-26T08:46:20;29.40;1.00
1137;DHT22;557;48.466;7.950;2023-06-26T08:49:14;29.60;1.00
1137;DHT22;557;48.466;7.950;2023-06-26T08:52:06;30.30;1.00
1137;DHT22;557;48.466;7.950;2023-06-26T08:54:58;30.40;1.00
1137;DHT22;557;48.466;7.950;2023-06-26T08:57:45;30.10;1.00
1137;DHT22;557;48.466;7.950;2023-06-26T09:00:34;29.60;1.00
1137;DHT22;557;48.466;7.950;2023-06-26T09:03:21;29.00;1.00
1137;DHT22;557;48.466;7.950;2023-06-26T09:06:11;28.70;1.00
1137;DHT22;557;48.466;7.950;2023-06-26T09:08:58;28.70;1.00
1137;DHT22;557;48.466;7.950;2023-06-26T09:11:45;28.70;1.00
1137;DHT22;557;48.466;7.950;2023-06-26T09:14:33;28.80;1.00
1137;DHT22;557;48.466;7.950;2023-06-26T09:17:24;28.90;1.00
1137;DHT22;557;48.466;7.950;2023-06-26T09:20:12;28.80;1.00
1137;DHT22;557;48.466;7.950;2023-06-26T09:23:00;28.80;1.00
1137;DHT22;557;48.466;7.950;2023-06-26T09:25:48;28.80;1.00
1137;DHT22;557;48.466;7.950;2023-06-26T09:28:36;28.50;1.00
1137;DHT22;557;48.466;7.950;2023-06-26T09:31:24;28.40;1.00
1137;DHT22;557;48.466;7.950;2023-06-26T09:34:13;28.70;1.00
1137;DHT22;557;48.466;7.950;2023-06-26T09:37:00;28.70;1.00
1137;DHT22;557;48.466;7.950;2023-06-26T09:39:50;28.90;1.00
1137;DHT22;557;48.466;7.950;2023-06-26T09:42:37;29.00;1.00
1137;DHT22;557;48.466;7.950;2023-06-26T09:45:25;29.30;1.00
1137;DHT22;557;48.466;7.950;2023-06-26T09:48:14;29.60;1.00
1137;DHT22;557;48.466;7.950;2023-06-26T09:51:04;29.80;1.00
1137;DHT22;557;48.466;7.950;2023-06-26T09:53:51;30.50;1.00
1137;DHT22;557;48.466;7.950;2023-06-26T09:56:39;31.00;1.00
1137;DHT22;557;48.466;7.950;2023-06-26T09:59:26;31.50;1.00
1137;DHT22;557;48.466;7.950;2023-06-26T10:02:14;31.90;1.00
1137;DHT22;557;48.466;7.950;2023-06-26T10:05:01;32.10;1.00
1137;DHT22;557;48.466;7.950;2023-06-26T10:07:51;32.10;1.00
1137;DHT22;557;48.466;7.950;2023-06-26T10:10:39;32.40;1.00
1137;DHT22;557;48.466;7.950;2023-06-26T10:13:30;32.10;1.00
1137;DHT22;557;48.466;7.950;2023-06-26T10:16:23;31.50;1.00
1137;DHT22;557;48.466;7.950;2023-06-26T10:19:12;31.50;1.00
1137;DHT22;557;48.466;7.950;2023-06-26T10:22:02;30.40;1.00
1137;DHT22;557;48.466;7.950;2023-06-26T10:24:53;29.30;1.00
1137;DHT22;557;48.466;7.950;2023-06-26T10:27:44;29.20;1.00
1137;DHT22;557;48.466;7.950;2023-06-26T10:30:35;29.20;1.00
1137;DHT22;557;48.466;7.950;2023-06-26T10:33:23;29.20;1.00
1137;DHT22;557;48.466;7.950;2023-06-26T10:36:14;28.90;1.00
1137;DHT22;557;48.466;7.950;2023-06-26T10:39:05;28.80;1.00
1137;DHT22;557;48.466;7.950;2023-06-26T10:42:08;28.90;1.00
1137;DHT22;557;48.466;7.950;2023-06-26T10:44:55;29.20;1.00
1137;DHT22;557;48.466;7.950;2023-06-26T10:47:57;29.60;1.00
1137;DHT22;557;48.466;7.950;2023-06-26T10:50:47;30.00;1.00
1137;DHT22;557;48.466;7.950;2023-06-26T10:53:42;30.70;1.00
1137;DHT22;557;48.466;7.950;2023-06-26T10:56:44;30.70;1.00
1137;DHT22;557;48.466;7.950;2023-06-26T10:59:34;30.90;1.00
1137;DHT22;557;48.466;7.950;2023-06-26T11:02:21;31.30;1.00
1137;DHT22;557;48.466;7.950;2023-06-26T11:05:23;30.80;1.00
1137;DHT22;557;48.466;7.950;2023-06-26T11:08:11;31.10;1.00
1137;DHT22;557;48.466;7.950;2023-06-26T11:11:02;30.70;1.00
1137;DHT22;557;48.466;7.950;2023-06-26T11:13:49;31.00;1.00
1137;DHT22;557;48.466;7.950;2023-06-26T11:16:39;31.30;1.00
1137;DHT22;557;48.466;7.950;2023-06-26T11:19:29;31.60;1.00
1137;DHT22;557;48.466;7.950;2023-06-26T11:22:18;31.40;1.00
1137;DHT22;557;48.466;7.950;2023-06-26T11:25:07;30.50;1.00
1137;DHT22;557;48.466;7.950;2023-06-26T11:27:55;30.00;1.00
1137;DHT22;557;48.466;7.950;2023-06-26T11:30:43;29.60;1.00
1137;DHT22;557;48.466;7.950;2023-06-26T11:33:32;29.80;1.00
1137;DHT22;557;48.466;7.950;2023-06-26T11:36:19;29.60;1.00
1137;DHT22;557;48.466;7.950;2023-06-26T11:39:07;29.50;1.00
1137;DHT22;557;48.466;7.950;2023-06-26T11:41:54;29.40;1.00
1137;DHT22;557;48.466;7.950;2023-06-26T11:44:42;29.50;1.00
1137;DHT22;557;48.466;7.950;2023-06-26T11:47:30;29.80;1.00
1137;DHT22;557;48.466;7.950;2023-06-26T11:50:18;29.90;1.00
1137;DHT22;557;48.466;7.950;2023-06-26T11:53:06;29.40;1.00
1137;DHT22;557;48.466;7.950;2023-06-26T11:55:53;29.50;1.00
1137;DHT22;557;48.466;7.950;2023-06-26T11:58:59;30.10;1.00
1137;DHT22;557;48.466;7.950;2023-06-26T12:01:50;31.00;1.00
1137;DHT22;557;48.466;7.950;2023-06-26T12:04:38;31.50;1.00
1137;DHT22;557;48.466;7.950;2023-06-26T12:07:27;32.10;1.00
1137;DHT22;557;48.466;7.950;2023-06-26T12:10:17;32.40;1.00
1137;DHT22;557;48.466;7.950;2023-06-26T12:13:07;31.80;1.00
1137;DHT22;557;48.466;7.950;2023-06-26T12:15:55;31.10;1.00
1137;DHT22;557;48.466;7.950;2023-06-26T12:18:42;30.70;1.00
1137;DHT22;557;48.466;7.950;2023-06-26T12:21:47;30.60;1.00
1137;DHT22;557;48.466;7.950;2023-06-26T12:24:39;31.10;1.00
1137;DHT22;557;48.466;7.950;2023-06-26T12:27:29;31.40;1.00
1137;DHT22;557;48.466;7.950;2023-06-26T12:30:16;31.10;1.00
1137;DHT22;557;48.466;7.950;2023-06-26T12:33:03;30.40;1.00
1137;DHT22;557;48.466;7.950;2023-06-26T12:35:51;30.50;1.00
1137;DHT22;557;48.466;7.950;2023-06-26T12:38:38;30.50;1.00
1137;DHT22;557;48.466;7.950;2023-06-26T12:41:27;31.20;1.00
1137;DHT22;557;48.466;7.950;2023-06-26T12:44:18;32.30;1.00
1137;DHT22;557;48.466;7.950;2023-06-26T12:47:06;32.80;1.00
1137;DHT22;557;48.466;7.950;2023-06-26T12:49:54;32.40;1.00
1137;DHT22;557;48.466;7.950;2023-06-26T12:52:42;32.40;1.00
1137;DHT22;557;48.466;7.950;2023-06-26T12:55:29;32.10;1.00
1137;DHT22;557;48.466;7.950;2023-06-26T12:58:18;31.70;1.00
1137;DHT22;557;48.466;7.950;2023-06-26T13:01:07;31.80;1.00
1137;DHT22;557;48.466;7.950;2023-06-26T13:03:56;31.30;1.00
1137;DHT22;557;48.466;7.950;2023-06-26T13:06:44;31.30;1.00
1137;DHT22;557;48.466;7.950;2023-06-26T13:09:33;31.90;1.00
1137;DHT22;557;48.466;7.950;2023-06-26T13:12:20;32.30;1.00
1137;DHT22;557;48.466;7.950;2023-06-26T13:15:10;32.20;1.00
1137;DHT22;557;48.466;7.950;2023-06-26T13:17:57;31.80;1.00
1137;DHT22;557;48.466;7.950;2023-06-26T13:20:45;31.80;1.00
1137;DHT22;557;48.466;7.950;2023-06-26T13:23:33;32.10;1.00
1137;DHT22;557;48.466;7.950;2023-06-26T13:26:20;32.60;1.00
1137;DHT22;557;48.466;7.950;2023-06-26T13:29:07;32.80;1.00
1137;DHT22;557;48.466;7.950;2023-06-26T13:31:56;32.50;1.00
1137;DHT22;557;48.466;7.950;2023-06-26T13:34:43;32.40;1.00
1137;DHT22;557;48.466;7.950;2023-06-26T13:37:32;32.00;1.00
1137;DHT22;557;48.466;7.950;2023-06-26T13:40:20;31.80;1.00
1137;DHT22;557;48.466;7.950;2023-06-26T13:43:07;32.40;1.00
1137;DHT22;557;48.466;7.950;2023-06-26T13:45:55;32.10;1.00
1137;DHT22;557;48.466;7.950;2023-06-26T13:48:44;32.40;1.00
1137;DHT22;557;48.466;7.950;2023-06-26T13:51:31;32.60;1.00
1137;DHT22;557;48.466;7.950;2023-06-26T13:54:19;32.60;1.00
1137;DHT22;557;48.466;7.950;2023-06-26T13:57:06;33.00;1.00
1137;DHT22;557;48.466;7.950;2023-06-26T13:59:54;32.90;1.00
1137;DHT22;557;48.466;7.950;2023-06-26T14:02:41;32.10;1.00
1137;DHT22;557;48.466;7.950;2023-06-26T14:05:30;31.90;1.00
1137;DHT22;557;48.466;7.950;2023-06-26T14:08:17;31.90;1.00
1137;DHT22;557;48.466;7.950;2023-06-26T14:11:05;32.10;1.00
1137;DHT22;557;48.466;7.950;2023-06-26T14:13:52;32.30;1.00
1137;DHT22;557;48.466;7.950;2023-06-26T14:16:39;32.40;1.00
1137;DHT22;557;48.466;7.950;2023-06-26T14:19:27;32.60;1.00
1137;DHT22;557;48.466;7.950;2023-06-26T14:22:15;32.70;1.00
1137;DHT22;557;48.466;7.950;2023-06-26T14:25:03;33.20;1.00
1137;DHT22;557;48.466;7.950;2023-06-26T14:27:50;32.70;1.00
1137;DHT22;557;48.466;7.950;2023-06-26T14:30:38;32.50;1.00
1137;DHT22;557;48.466;7.950;2023-06-26T14:33:25;32.20;1.00
1137;DHT22;557;48.466;7.950;2023-06-26T14:36:12;32.50;1.00
1137;DHT22;557;48.466;7.950;2023-06-26T14:39:01;33.20;1.00
1137;DHT22;557;48.466;7.950;2023-06-26T14:41:48;33.00;1.00
1137;DHT22;557;48.466;7.950;2023-06-26T14:44:36;32.10;1.00
1137;DHT22;557;48.466;7.950;2023-06-26T14:47:23;31.80;1.00
1137;DHT22;557;48.466;7.950;2023-06-26T14:50:11;31.20;1.00
1137;DHT22;557;48.466;7.950;2023-06-26T14:52:58;30.60;1.00
1137;DHT22;557;48.466;7.950;2023-06-26T14:55:47;30.40;1.00
1137;DHT22;557;48.466;7.950;2023-06-26T14:58:34;30.00;1.00
1137;DHT22;557;48.466;7.950;2023-06-26T15:01:21;29.80;1.00
1137;DHT22;557;48.466;7.950;2023-06-26T15:04:09;29.80;1.00
1137;DHT22;557;48.466;7.950;2023-06-26T15:06:57;29.70;1.00
1137;DHT22;557;48.466;7.950;2023-06-26T15:09:44;30.00;1.00
1137;DHT22;557;48.466;7.950;2023-06-26T15:12:33;30.50;1.00
1137;DHT22;557;48.466;7.950;2023-06-26T15:15:20;30.30;1.00
1137;DHT22;557;48.466;7.950;2023-06-26T15:18:08;30.30;1.00
1137;DHT22;557;48.466;7.950;2023-06-26T15:20:55;30.20;1.00
1137;DHT22;557;48.466;7.950;2023-06-26T15:23:42;29.60;1.00
1137;DHT22;557;48.466;7.950;2023-06-26T15:26:30;29.50;1.00
1137;DHT22;557;48.466;7.950;2023-06-26T15:29:18;29.40;1.00
1137;DHT22;557;48.466;7.950;2023-06-26T15:32:06;29.40;1.00
1137;DHT22;557;48.466;7.950;2023-06-26T15:34:54;29.60;1.00
1137;DHT22;557;48.466;7.950;2023-06-26T15:37:41;29.80;1.00
1137;DHT22;557;48.466;7.950;2023-06-26T15:40:30;30.20;1.00
1137;DHT22;557;48.466;7.950;2023-06-26T15:43:17;30.30;1.00
1137;DHT22;557;48.466;7.950;2023-06-26T15:46:06;30.10;1.00
1137;DHT22;557;48.466;7.950;2023-06-26T15:48:53;29.70;1.00
1137;DHT22;557;48.466;7.950;2023-06-26T15:51:40;29.40;1.00
1137;DHT22;557;48.466;7.950;2023-06-26T15:54:28;29.30;1.00
1137;DHT22;557;48.466;7.950;2023-06-26T15:57:15;29.30;1.00
1137;DHT22;557;48.466;7.950;2023-06-26T16:00:03;29.20;1.00
1137;DHT22;557;48.466;7.950;2023-06-26T16:02:52;29.10;1.00
1137;DHT22;557;48.466;7.950;2023-06-26T16:05:39;29.00;1.00
1137;DHT22;557;48.466;7.950;2023-06-26T16:08:27;28.80;1.00
1137;DHT22;557;48.466;7.950;2023-06-26T16:11:14;28.60;1.00
1137;DHT22;557;48.466;7.950;2023-06-26T16:14:02;28.50;1.00
1137;DHT22;557;48.466;7.950;2023-06-26T16:16:49;28.60;1.00
1137;DHT22;557;48.466;7.950;2023-06-26T16:19:37;28.70;1.00
1137;DHT22;557;48.466;7.950;2023-06-26T16:22:25;28.90;1.00
1137;DHT22;557;48.466;7.950;2023-06-26T16:25:12;28.90;1.00
1137;DHT22;557;48.466;7.950;2023-06-26T16:27:59;28.90;1.00
1137;DHT22;557;48.466;7.950;2023-06-26T16:30:47;28.80;1.00
1137;DHT22;557;48.466;7.950;2023-06-26T16:33:34;28.70;1.00
1137;DHT22;557;48.466;7.950;2023-06-26T16:36:23;28.60;1.00
1137;DHT22;557;48.466;7.950;2023-06-26T16:39:11;28.50;1.00
1137;DHT22;557;48.466;7.950;2023-06-26T16:42:02;28.50;1.00
1137;DHT22;557;48.466;7.950;2023-06-26T16:44:49;28.40;1.00
1137;DHT22;557;48.466;7.950;2023-06-26T16:47:36;28.20;1.00
1137;DHT22;557;48.466;7.950;2023-06-26T16:50:23;28.10;1.00
1137;DHT22;557;48.466;7.950;2023-06-26T16:53:12;28.00;1.00
1137;DHT22;557;48.466;7.950;2023-06-26T16:56:00;28.00;1.00
1137;DHT22;557;48.466;7.950;2023-06-26T16:58:47;28.00;1.00
1137;DHT22;557;48.466;7.950;2023-06-26T17:01:35;28.10;1.00
1137;DHT22;557;48.466;7.950;2023-06-26T17:04:22;28.20;1.00
1137;DHT22;557;48.466;7.950;2023-06-26T17:07:09;28.20;1.00
1137;DHT22;557;48.466;7.950;2023-06-26T17:09:58;28.20;1.00
1137;DHT22;557;48.466;7.950;2023-06-26T17:12:45;28.10;1.00
1137;DHT22;557;48.466;7.950;2023-06-26T17:15:33;28.10;1.00
1137;DHT22;557;48.466;7.950;2023-06-26T17:18:20;28.00;1.00
1137;DHT22;557;48.466;7.950;2023-06-26T17:21:07;27.90;1.00
1137;DHT22;557;48.466;7.950;2023-06-26T17:23:58;27.80;1.00
1137;DHT22;557;48.466;7.950;2023-06-26T17:26:48;27.50;1.00
1137;DHT22;557;48.466;7.950;2023-06-26T17:29:36;27.30;1.00
1137;DHT22;557;48.466;7.950;2023-06-26T17:32:24;27.20;1.00
1137;DHT22;557;48.466;7.950;2023-06-26T17:35:11;27.20;1.00
1137;DHT22;557;48.466;7.950;2023-06-26T17:37:58;27.10;1.00
1137;DHT22;557;48.466;7.950;2023-06-26T17:40:46;27.00;1.00
1137;DHT22;557;48.466;7.950;2023-06-26T17:43:34;27.00;1.00
1137;DHT22;557;48.466;7.950;2023-06-26T17:46:22;26.90;1.00
1137;DHT22;557;48.466;7.950;2023-06-26T17:49:09;26.80;1.00
1137;DHT22;557;48.466;7.950;2023-06-26T17:51:56;26.60;1.00
1137;DHT22;557;48.466;7.950;2023-06-26T17:54:44;26.50;1.00
1137;DHT22;557;48.466;7.950;2023-06-26T17:57:31;26.40;1.00
1137;DHT22;557;48.466;7.950;2023-06-26T18:00:20;26.30;1.00
1137;DHT22;557;48.466;7.950;2023-06-26T18:03:07;26.10;1.00
1137;DHT22;557;48.466;7.950;2023-06-26T18:05:55;26.10;1.00
1137;DHT22;557;48.466;7.950;2023-06-26T18:08:42;26.00;1.00
1137;DHT22;557;48.466;7.950;2023-06-26T18:11:30;25.80;1.00
1137;DHT22;557;48.466;7.950;2023-06-26T18:14:17;25.70;1.00
1137;DHT22;557;48.466;7.950;2023-06-26T18:17:06;25.60;1.00
1137;DHT22;557;48.466;7.950;2023-06-26T18:19:53;25.50;1.00
1137;DHT22;557;48.466;7.950;2023-06-26T18:22:41;25.40;1.00
1137;DHT22;557;48.466;7.950;2023-06-26T18:25:28;25.30;1.00
1137;DHT22;557;48.466;7.950;2023-06-26T18:28:15;25.20;1.00
1137;DHT22;557;48.466;7.950;2023-06-26T18:31:03;25.10;1.00
1137;DHT22;557;48.466;7.950;2023-06-26T18:33:55;24.90;1.00
1137;DHT22;557;48.466;7.950;2023-06-26T18:36:43;24.80;1.00
1137;DHT22;557;48.466;7.950;2023-06-26T18:39:30;24.70;1.00
1137;DHT22;557;48.466;7.950;2023-06-26T18:42:17;24.50;1.00
1137;DHT22;557;48.466;7.950;2023-06-26T18:45:06;24.40;1.00
1137;DHT22;557;48.466;7.950;2023-06-26T18:47:53;24.20;1.00
1137;DHT22;557;48.466;7.950;2023-06-26T18:50:42;24.10;1.00
1137;DHT22;557;48.466;7.950;2023-06-26T18:53:29;24.00;1.00